Las Bayas, Argentina
Current Conditions -  °F | °C
As of 11:00 PM on Saturday 25 Oct 2014 (Local Time) from SAZS Reporting Station
Clear Clear  
Wind Chill: 55°   Ceiling: Unl
Heat Index: 55°   Visibility: 6mi
Dew Point: 34°   Wind: 8mph
Humidity: 44%   Direction: 320°NW
Pressure: 29.88"   Gusts: NA
Location:  41.29°S, 70.7°W
Report Text: SAZS 260200Z 32007KT CAVOK 13/01 Q1012
Loading
Personal Weather Stations






























Interactive Weather Map New forecast layout! Learn more

10-Day Weather Forecast

Advertisements
Track Severe Weather on mobile